createdAt,value
2023-02-20T00:00:36.904Z,6.10
2023-02-20T00:03:22.972Z,4.40
2023-02-20T00:05:49.467Z,3.10
2023-02-20T00:08:16.065Z,2.80
2023-02-20T00:10:42.554Z,3.10
2023-02-20T00:13:08.980Z,6.00
2023-02-20T00:15:35.488Z,3.80
2023-02-20T00:18:01.932Z,2.10
2023-02-20T00:20:29.758Z,2.00
2023-02-20T00:22:56.567Z,4.00
2023-02-20T00:25:22.984Z,4.80
2023-02-20T00:27:50.296Z,5.30
2023-02-20T00:30:22.867Z,2.00
2023-02-20T00:32:55.500Z,5.50
2023-02-20T00:35:23.699Z,5.00
2023-02-20T00:37:51.833Z,3.40
2023-02-20T00:40:20.728Z,2.70
2023-02-20T00:42:47.519Z,3.40
2023-02-20T00:45:16.520Z,3.40
2023-02-20T00:47:43.717Z,3.60
2023-02-20T00:50:13.239Z,3.60
2023-02-20T00:52:39.872Z,3.10
2023-02-20T00:55:06.619Z,3.00
2023-02-20T00:57:33.075Z,2.10
2023-02-20T00:59:59.588Z,1.60
2023-02-20T01:02:26.415Z,2.90
2023-02-20T01:04:52.980Z,3.40
2023-02-20T01:07:19.429Z,3.20
2023-02-20T01:09:45.879Z,1.40
2023-02-20T01:12:12.442Z,3.70
2023-02-20T01:14:38.942Z,1.20
2023-02-20T01:17:05.401Z,1.50
2023-02-20T01:19:32.077Z,3.00
2023-02-20T01:21:59.772Z,2.50
2023-02-20T01:24:26.209Z,2.10
2023-02-20T01:26:52.594Z,2.70
2023-02-20T01:29:19.268Z,7.10
2023-02-20T01:31:51.101Z,3.80
2023-02-20T01:34:19.900Z,3.70
2023-02-20T01:36:49.501Z,4.70
2023-02-20T01:39:19.040Z,3.20
2023-02-20T01:41:49.025Z,2.60
2023-02-20T01:44:24.167Z,2.60
2023-02-20T01:46:56.711Z,2.10
2023-02-20T01:49:37.813Z,2.30
2023-02-20T01:52:33.745Z,5.40
2023-02-20T01:55:07.456Z,3.70
2023-02-20T01:57:38.587Z,2.80
2023-02-20T02:00:13.704Z,3.10
2023-02-20T02:02:49.057Z,2.70
2023-02-20T02:05:17.457Z,6.00
2023-02-20T02:07:45.054Z,3.50
2023-02-20T02:10:23.761Z,5.30
2023-02-20T02:12:54.076Z,4.60
2023-02-20T02:15:24.236Z,4.00
2023-02-20T02:18:10.601Z,3.40
2023-02-20T02:21:17.002Z,1.70
2023-02-20T02:24:08.292Z,1.80
2023-02-20T02:27:12.636Z,1.70
2023-02-20T02:30:16.023Z,6.30
2023-02-20T02:33:20.178Z,2.20
2023-02-20T02:36:27.964Z,6.80
2023-02-20T02:39:36.013Z,7.70
2023-02-20T02:42:27.120Z,3.90
2023-02-20T02:45:04.221Z,3.70
2023-02-20T02:47:49.895Z,8.80
2023-02-20T02:50:32.065Z,2.70
2023-02-20T02:52:58.797Z,4.50
2023-02-20T02:55:29.900Z,3.30
2023-02-20T02:57:56.556Z,5.40
2023-02-20T03:00:35.148Z,7.30
2023-02-20T03:03:14.688Z,3.10
2023-02-20T03:06:08.876Z,7.80
2023-02-20T03:08:56.935Z,1.70
2023-02-20T03:11:30.082Z,8.50
2023-02-20T03:14:41.178Z,6.50
2023-02-20T03:17:34.353Z,2.60
2023-02-20T03:20:08.553Z,1.90
2023-02-20T03:22:52.912Z,1.80
2023-02-20T03:25:29.485Z,3.80
2023-02-20T03:28:12.783Z,2.70
2023-02-20T03:31:14.499Z,3.10
2023-02-20T03:34:19.525Z,2.00
2023-02-20T03:37:19.292Z,2.20
2023-02-20T03:40:11.916Z,3.60
2023-02-20T03:43:04.973Z,2.40
2023-02-20T03:45:36.830Z,1.70
2023-02-20T03:48:13.633Z,1.50
2023-02-20T03:50:59.728Z,3.80
2023-02-20T03:53:27.106Z,2.70
2023-02-20T03:55:57.553Z,3.40
2023-02-20T03:58:27.336Z,2.30
2023-02-20T04:00:59.863Z,1.60
2023-02-20T04:03:32.757Z,1.70
2023-02-20T04:06:08.801Z,6.10
2023-02-20T04:08:44.022Z,2.70
2023-02-20T04:11:48.238Z,3.00
2023-02-20T04:14:20.616Z,1.60
2023-02-20T04:16:54.407Z,1.80
2023-02-20T04:19:21.125Z,2.40
2023-02-20T04:21:58.775Z,2.80
2023-02-20T04:24:35.611Z,3.50
2023-02-20T04:27:03.729Z,3.70
2023-02-20T04:29:30.391Z,2.40
2023-02-20T04:31:57.166Z,3.90
2023-02-20T04:34:24.009Z,5.60
2023-02-20T04:37:14.194Z,1.80
2023-02-20T04:39:41.008Z,1.40
2023-02-20T04:42:07.683Z,3.80
2023-02-20T04:44:34.674Z,5.10
2023-02-20T04:47:06.221Z,1.40
2023-02-20T04:49:33.385Z,4.40
2023-02-20T04:52:00.244Z,3.60
2023-02-20T04:54:27.156Z,2.90
2023-02-20T04:56:53.690Z,2.50
2023-02-20T04:59:20.445Z,2.00
2023-02-20T05:01:51.480Z,5.90
2023-02-20T05:04:20.292Z,3.00
2023-02-20T05:06:51.910Z,3.90
2023-02-20T05:09:20.457Z,2.90
2023-02-20T05:11:47.668Z,5.10
2023-02-20T05:14:14.758Z,2.60
2023-02-20T05:16:42.509Z,4.90
2023-02-20T05:19:09.023Z,2.30
2023-02-20T05:21:54.638Z,2.60
2023-02-20T05:24:23.388Z,3.60
2023-02-20T05:26:49.822Z,3.00
2023-02-20T05:29:16.247Z,2.00
2023-02-20T05:31:42.781Z,3.70
2023-02-20T05:34:09.440Z,4.40
2023-02-20T05:36:36.093Z,3.90
2023-02-20T05:39:04.355Z,2.90
2023-02-20T05:41:31.326Z,4.00
2023-02-20T05:43:59.363Z,2.60
2023-02-20T05:46:27.050Z,4.40
2023-02-20T05:48:54.668Z,2.20
2023-02-20T05:51:28.488Z,3.80
2023-02-20T05:53:55.749Z,3.10
2023-02-20T05:56:22.860Z,1.70
2023-02-20T05:58:50.374Z,4.20
2023-02-20T06:01:26.401Z,2.70
2023-02-20T06:03:53.484Z,1.30
2023-02-20T06:06:20.703Z,3.00
2023-02-20T06:08:48.209Z,2.80
2023-02-20T06:11:16.155Z,2.20
2023-02-20T06:13:44.863Z,2.50
2023-02-20T06:16:12.329Z,2.90
2023-02-20T06:18:41.588Z,2.50
2023-02-20T06:21:10.153Z,2.40
2023-02-20T06:23:38.861Z,3.00
2023-02-20T06:26:07.112Z,1.50
2023-02-20T06:28:34.836Z,2.40
2023-02-20T06:31:02.245Z,2.30
2023-02-20T06:33:29.702Z,6.70
2023-02-20T06:35:56.338Z,3.20
2023-02-20T06:38:24.014Z,2.00
2023-02-20T06:40:51.424Z,3.30
2023-02-20T06:43:19.004Z,3.90
2023-02-20T06:45:46.402Z,2.50
2023-02-20T06:48:14.308Z,2.20
2023-02-20T06:50:41.435Z,2.30
2023-02-20T06:53:08.608Z,3.50
2023-02-20T06:55:35.049Z,2.50
2023-02-20T06:58:01.503Z,3.80
2023-02-20T07:00:27.968Z,3.70
2023-02-20T07:02:54.397Z,2.50
2023-02-20T07:05:21.143Z,5.20
2023-02-20T07:07:47.698Z,3.70
2023-02-20T07:10:14.208Z,3.80
2023-02-20T07:12:40.958Z,4.20
2023-02-20T07:15:08.292Z,4.10
2023-02-20T07:17:34.800Z,4.90
2023-02-20T07:20:01.864Z,6.50
2023-02-20T07:22:28.538Z,3.70
2023-02-20T07:24:55.588Z,2.30
2023-02-20T07:27:22.410Z,2.90
2023-02-20T07:29:50.557Z,3.20
2023-02-20T07:32:19.951Z,2.40
2023-02-20T07:35:01.410Z,2.90
2023-02-20T07:37:30.637Z,3.40
2023-02-20T07:40:00.152Z,3.80
2023-02-20T07:42:26.576Z,2.30
2023-02-20T07:44:53.128Z,1.90
2023-02-20T07:47:19.581Z,2.00
2023-02-20T07:49:46.260Z,2.70
2023-02-20T07:52:12.666Z,2.80
2023-02-20T07:54:39.206Z,1.70
2023-02-20T07:57:05.968Z,1.70
2023-02-20T07:59:32.526Z,2.20
2023-02-20T08:01:59.026Z,1.80
2023-02-20T08:04:26.753Z,1.00
2023-02-20T08:06:53.489Z,1.40
2023-02-20T08:09:19.975Z,1.80
2023-02-20T08:11:46.502Z,2.30
2023-02-20T08:14:14.521Z,2.40
2023-02-20T08:16:40.953Z,2.50
2023-02-20T08:19:07.559Z,2.90
2023-02-20T08:21:34.028Z,1.70
2023-02-20T08:24:00.607Z,5.60
2023-02-20T08:26:27.540Z,5.20
2023-02-20T08:28:54.317Z,4.20
2023-02-20T08:31:31.543Z,4.10
2023-02-20T08:33:59.585Z,2.70
2023-02-20T08:36:26.088Z,3.70
2023-02-20T08:38:52.690Z,4.20
2023-02-20T08:41:19.429Z,2.70
2023-02-20T08:43:46.410Z,3.20
2023-02-20T08:46:13.337Z,3.90
2023-02-20T08:48:41.111Z,4.80
2023-02-20T08:51:08.553Z,3.00
2023-02-20T08:53:38.576Z,3.50
2023-02-20T08:56:06.859Z,3.60
2023-02-20T08:58:33.372Z,1.80
2023-02-20T09:00:59.920Z,3.00
2023-02-20T09:03:26.675Z,3.30
2023-02-20T09:05:53.090Z,3.30
2023-02-20T09:08:19.911Z,3.80
2023-02-20T09:10:47.444Z,2.60
2023-02-20T09:13:14.314Z,2.80
2023-02-20T09:15:40.824Z,2.90
2023-02-20T09:18:12.399Z,5.00
2023-02-20T09:20:39.353Z,3.50
2023-02-20T09:23:06.690Z,5.00
2023-02-20T09:25:34.150Z,4.20
2023-02-20T09:28:01.053Z,4.60
2023-02-20T09:30:27.810Z,4.20
2023-02-20T09:32:54.670Z,4.90
2023-02-20T09:35:28.837Z,3.80
2023-02-20T09:37:55.798Z,5.30
2023-02-20T09:40:25.918Z,4.20
2023-02-20T09:43:22.543Z,3.90
2023-02-20T09:46:18.494Z,3.80
2023-02-20T09:49:04.755Z,5.50
2023-02-20T09:51:41.022Z,4.80
2023-02-20T09:54:12.386Z,3.10
2023-02-20T09:56:48.081Z,4.70
2023-02-20T09:59:44.564Z,5.20
2023-02-20T10:02:24.437Z,4.50
2023-02-20T10:05:01.269Z,6.30
2023-02-20T10:07:36.170Z,4.60
2023-02-20T10:10:38.431Z,4.50
2023-02-20T10:13:40.260Z,5.70
2023-02-20T10:16:40.965Z,5.70
2023-02-20T10:19:33.197Z,6.40
2023-02-20T10:22:29.877Z,5.40
2023-02-20T10:25:20.499Z,6.60
2023-02-20T10:27:52.873Z,6.90
2023-02-20T10:30:37.740Z,8.50
2023-02-20T10:33:36.112Z,8.10
2023-02-20T10:36:18.489Z,9.10
2023-02-20T10:38:57.790Z,5.30
2023-02-20T10:41:42.637Z,10.80
2023-02-20T10:44:30.130Z,8.30
2023-02-20T10:47:13.051Z,8.40
2023-02-20T10:49:55.607Z,8.20
2023-02-20T10:52:34.817Z,6.70
2023-02-20T10:55:28.670Z,6.60
2023-02-20T10:58:12.930Z,10.40
2023-02-20T11:00:52.266Z,10.00
2023-02-20T11:03:29.547Z,8.00
2023-02-20T11:06:03.267Z,7.70
2023-02-20T11:08:29.826Z,6.30
2023-02-20T11:11:20.043Z,9.10
2023-02-20T11:13:46.735Z,9.00
2023-02-20T11:16:45.722Z,8.00
2023-02-20T11:19:29.932Z,7.20
2023-02-20T11:21:56.426Z,7.70
2023-02-20T11:24:29.586Z,7.30
2023-02-20T11:27:20.825Z,5.90
2023-02-20T11:30:01.918Z,5.90
2023-02-20T11:32:34.581Z,6.10
2023-02-20T11:35:19.522Z,7.50
2023-02-20T11:38:25.617Z,7.40
2023-02-20T11:41:04.478Z,7.70
2023-02-20T11:43:43.706Z,7.80
2023-02-20T11:46:24.124Z,6.40
2023-02-20T11:48:53.584Z,9.10
2023-02-20T11:51:33.989Z,8.80
2023-02-20T11:54:17.718Z,12.80
2023-02-20T11:57:25.107Z,12.50
2023-02-20T12:00:12.693Z,11.20
2023-02-20T12:03:17.281Z,13.20
2023-02-20T12:05:47.674Z,12.30
2023-02-20T12:08:37.165Z,7.80
2023-02-20T12:11:11.856Z,12.00
2023-02-20T12:13:45.796Z,11.40
2023-02-20T12:16:49.449Z,11.80
2023-02-20T12:19:36.480Z,11.70
2023-02-20T12:22:09.264Z,12.20
2023-02-20T12:24:56.333Z,11.30
2023-02-20T12:27:57.659Z,9.40
2023-02-20T12:31:09.355Z,8.60
2023-02-20T12:34:00.206Z,8.80
2023-02-20T12:36:32.382Z,7.20
2023-02-20T12:39:16.756Z,10.20
2023-02-20T12:42:13.444Z,7.50
2023-02-20T12:45:08.477Z,8.40
2023-02-20T12:47:43.505Z,9.00
2023-02-20T12:50:43.115Z,8.00
2023-02-20T12:53:25.164Z,9.40
2023-02-20T12:56:05.891Z,7.90
2023-02-20T12:59:13.125Z,6.80
2023-02-20T13:01:40.985Z,7.00
2023-02-20T13:04:26.596Z,6.60
2023-02-20T13:07:52.045Z,6.60
2023-02-20T13:10:34.455Z,6.20
2023-02-20T13:13:01.956Z,6.20
2023-02-20T13:15:52.322Z,6.30
2023-02-20T13:18:53.541Z,4.70
2023-02-20T13:21:28.346Z,7.40
2023-02-20T13:24:21.197Z,7.40
2023-02-20T13:27:06.236Z,6.60
2023-02-20T13:29:55.588Z,7.50
2023-02-20T13:32:32.428Z,6.00
2023-02-20T13:35:39.868Z,6.10
2023-02-20T13:38:18.514Z,6.30
2023-02-20T13:41:05.618Z,6.10
2023-02-20T13:43:37.597Z,3.90
2023-02-20T13:46:07.228Z,5.80
2023-02-20T13:48:33.659Z,5.50
2023-02-20T13:51:15.737Z,6.10
2023-02-20T13:53:49.914Z,5.30
2023-02-20T13:56:23.478Z,7.00
2023-02-20T13:58:55.935Z,5.50
2023-02-20T14:01:22.649Z,7.30
2023-02-20T14:04:05.391Z,4.80
2023-02-20T14:06:31.908Z,4.90
2023-02-20T14:09:24.111Z,4.10
2023-02-20T14:11:55.389Z,4.00
2023-02-20T14:14:34.230Z,2.70
2023-02-20T14:17:12.134Z,4.80
2023-02-20T14:19:45.746Z,4.50
2023-02-20T14:22:21.575Z,4.00
2023-02-20T14:25:19.404Z,3.40
2023-02-20T14:27:49.413Z,5.90
2023-02-20T14:30:25.362Z,3.50
2023-02-20T14:32:55.922Z,4.00
2023-02-20T14:35:47.814Z,4.70
2023-02-20T14:38:52.669Z,4.50
2023-02-20T14:41:23.204Z,5.30
2023-02-20T14:44:17.820Z,4.60
2023-02-20T14:46:46.855Z,3.70
2023-02-20T14:49:25.547Z,3.90
2023-02-20T14:52:04.639Z,4.20
2023-02-20T14:54:31.566Z,2.90
2023-02-20T14:57:00.307Z,4.30
2023-02-20T14:59:36.389Z,2.30
2023-02-20T15:02:05.645Z,2.50
2023-02-20T15:04:32.112Z,4.90
2023-02-20T15:07:06.488Z,2.40
2023-02-20T15:09:43.983Z,2.40
2023-02-20T15:12:28.351Z,3.90
2023-02-20T15:15:06.008Z,2.30
2023-02-20T15:17:41.851Z,3.90
2023-02-20T15:20:29.105Z,3.10
2023-02-20T15:23:15.124Z,2.70
2023-02-20T15:25:44.209Z,2.30
2023-02-20T15:28:26.324Z,4.70
2023-02-20T15:31:01.602Z,2.40
2023-02-20T15:33:31.429Z,3.20
2023-02-20T15:35:58.625Z,3.60
2023-02-20T15:38:35.269Z,3.00
2023-02-20T15:41:05.047Z,1.70
2023-02-20T15:43:51.037Z,3.10
2023-02-20T15:46:20.136Z,3.40
2023-02-20T15:48:47.029Z,4.20
2023-02-20T15:51:20.890Z,3.30
2023-02-20T15:53:50.594Z,2.70
2023-02-20T15:56:17.816Z,4.40
2023-02-20T15:58:46.748Z,3.30
2023-02-20T16:01:13.611Z,4.40
2023-02-20T16:03:51.733Z,3.30
2023-02-20T16:06:22.163Z,3.40
2023-02-20T16:08:50.445Z,4.70
2023-02-20T16:11:20.605Z,4.60
2023-02-20T16:13:54.411Z,4.40
2023-02-20T16:16:32.924Z,3.90
2023-02-20T16:19:00.347Z,6.00
2023-02-20T16:21:28.522Z,4.90
2023-02-20T16:23:55.527Z,3.20
2023-02-20T16:26:28.271Z,4.90
2023-02-20T16:29:00.138Z,1.80
2023-02-20T16:32:07.069Z,4.10
2023-02-20T16:34:34.741Z,3.50
2023-02-20T16:37:02.659Z,6.90
2023-02-20T16:39:29.499Z,5.10
2023-02-20T16:41:58.628Z,6.20
2023-02-20T16:44:36.291Z,4.80
2023-02-20T16:47:03.195Z,4.90
2023-02-20T16:49:36.478Z,5.80
2023-02-20T16:52:35.027Z,7.80
2023-02-20T16:55:02.501Z,6.50
2023-02-20T16:57:29.422Z,3.20
2023-02-20T16:59:59.506Z,3.40
2023-02-20T17:02:31.099Z,5.20
2023-02-20T17:04:59.339Z,8.40
2023-02-20T17:07:26.212Z,4.80
2023-02-20T17:09:53.346Z,8.10
2023-02-20T17:12:23.305Z,8.70
2023-02-20T17:14:53.011Z,6.50
2023-02-20T17:17:20.403Z,7.00
2023-02-20T17:19:47.003Z,8.40
2023-02-20T17:22:13.660Z,8.50
2023-02-20T17:24:42.897Z,4.60
2023-02-20T17:27:12.429Z,9.70
2023-02-20T17:29:42.384Z,9.70
2023-02-20T17:32:09.034Z,6.60
2023-02-20T17:34:35.586Z,8.00
2023-02-20T17:37:02.227Z,7.10
2023-02-20T17:39:28.764Z,7.20
2023-02-20T17:41:56.916Z,6.70
2023-02-20T17:44:29.602Z,4.80
2023-02-20T17:46:59.706Z,7.50
2023-02-20T17:49:28.187Z,8.20
2023-02-20T17:51:58.638Z,10.50
2023-02-20T17:54:27.094Z,10.00
2023-02-20T17:56:54.578Z,9.70
2023-02-20T17:59:23.125Z,6.90
2023-02-20T18:01:50.721Z,9.20
2023-02-20T18:04:21.025Z,9.80
2023-02-20T18:06:48.779Z,6.00
2023-02-20T18:09:18.154Z,9.70
2023-02-20T18:11:45.959Z,10.20
2023-02-20T18:14:13.977Z,11.00
2023-02-20T18:16:41.465Z,7.30
2023-02-20T18:19:13.228Z,6.40
2023-02-20T18:21:42.129Z,14.10
2023-02-20T18:24:10.773Z,13.90
2023-02-20T18:26:38.173Z,12.50
2023-02-20T18:29:05.002Z,10.20
2023-02-20T18:31:32.919Z,11.80
2023-02-20T18:34:01.392Z,10.00
2023-02-20T18:36:29.222Z,13.70
2023-02-20T18:38:57.265Z,8.80
2023-02-20T18:41:25.154Z,14.40
2023-02-20T18:43:52.307Z,14.60
2023-02-20T18:46:32.410Z,15.70
2023-02-20T18:49:01.950Z,11.40
2023-02-20T18:51:32.152Z,8.60
2023-02-20T18:53:58.834Z,9.30
2023-02-20T18:56:27.326Z,15.50
2023-02-20T18:58:56.935Z,7.80
2023-02-20T19:01:23.596Z,13.00
2023-02-20T19:03:53.116Z,14.90
2023-02-20T19:06:25.117Z,15.40
2023-02-20T19:08:52.031Z,7.40
2023-02-20T19:11:19.015Z,11.90
2023-02-20T19:13:45.527Z,13.70
2023-02-20T19:16:14.070Z,13.10
2023-02-20T19:18:49.718Z,15.10
2023-02-20T19:21:19.086Z,18.40
2023-02-20T19:23:46.786Z,12.70
2023-02-20T19:26:14.656Z,11.30
2023-02-20T19:28:41.574Z,13.70
2023-02-20T19:31:12.650Z,14.20
2023-02-20T19:33:40.298Z,11.50
2023-02-20T19:36:10.292Z,12.80
2023-02-20T19:38:38.893Z,13.60
2023-02-20T19:41:06.445Z,14.70
2023-02-20T19:43:33.226Z,8.50
2023-02-20T19:45:59.975Z,13.80
2023-02-20T19:48:28.284Z,9.60
2023-02-20T19:50:56.247Z,11.80
2023-02-20T19:53:23.713Z,16.10
2023-02-20T19:55:53.723Z,16.50
2023-02-20T19:58:20.549Z,11.10
2023-02-20T20:00:47.244Z,9.50
2023-02-20T20:03:13.669Z,15.00
2023-02-20T20:05:40.174Z,11.30
2023-02-20T20:08:06.961Z,12.00
2023-02-20T20:10:33.524Z,7.10
2023-02-20T20:13:00.324Z,14.40
2023-02-20T20:15:28.493Z,18.50
2023-02-20T20:18:01.299Z,13.90
2023-02-20T20:20:31.165Z,16.40
2023-02-20T20:23:01.109Z,8.70
2023-02-20T20:25:28.292Z,14.20
2023-02-20T20:27:57.089Z,14.00
2023-02-20T20:30:27.681Z,16.50
2023-02-20T20:32:58.263Z,11.10
2023-02-20T20:35:29.078Z,9.60
2023-02-20T20:37:59.739Z,15.40
2023-02-20T20:40:28.508Z,11.90
2023-02-20T20:42:57.040Z,10.80
2023-02-20T20:45:24.686Z,6.30
2023-02-20T20:47:51.233Z,14.70
2023-02-20T20:50:22.690Z,11.70
2023-02-20T20:52:50.397Z,14.40
2023-02-20T20:55:17.399Z,15.50
2023-02-20T20:57:43.980Z,12.50
2023-02-20T21:00:25.292Z,11.20
2023-02-20T21:02:55.298Z,13.00
2023-02-20T21:05:28.842Z,13.00
2023-02-20T21:07:56.157Z,13.60
2023-02-20T21:10:22.821Z,12.10
2023-02-20T21:12:49.361Z,13.30
2023-02-20T21:15:16.908Z,9.80
2023-02-20T21:17:43.852Z,11.70
2023-02-20T21:20:19.392Z,10.00
2023-02-20T21:22:46.670Z,13.70
2023-02-20T21:25:13.311Z,13.00
2023-02-20T21:27:39.864Z,13.30
2023-02-20T21:30:08.634Z,6.90
2023-02-20T21:32:35.982Z,15.50
2023-02-20T21:35:05.401Z,14.50
2023-02-20T21:37:32.205Z,14.90
2023-02-20T21:39:58.783Z,15.80
2023-02-20T21:42:43.681Z,10.60
2023-02-20T21:45:10.178Z,16.20
2023-02-20T21:47:36.719Z,14.40
2023-02-20T21:50:06.731Z,9.40
2023-02-20T21:52:37.279Z,11.20
2023-02-20T21:55:09.867Z,16.20
2023-02-20T21:57:36.831Z,7.80
2023-02-20T22:00:08.160Z,9.80
2023-02-20T22:02:34.750Z,8.30
2023-02-20T22:05:01.430Z,16.80
2023-02-20T22:17:27.955Z,9.20
2023-02-20T22:20:15.403Z,9.60
2023-02-20T22:23:00.782Z,11.60
2023-02-20T22:25:46.720Z,9.40
2023-02-20T22:28:33.477Z,12.90
2023-02-20T22:31:20.649Z,8.10
2023-02-20T22:34:06.737Z,16.00
2023-02-20T22:36:52.239Z,11.10
2023-02-20T22:39:38.135Z,17.40
2023-02-20T22:42:34.367Z,11.20
2023-02-20T22:45:21.619Z,13.50
2023-02-20T22:48:06.536Z,11.50
2023-02-20T22:50:51.665Z,9.50
2023-02-20T22:53:36.843Z,21.50
2023-02-20T22:56:22.669Z,13.50
2023-02-20T22:59:08.060Z,16.30
2023-02-20T23:01:53.192Z,16.10
2023-02-20T23:04:38.535Z,12.30
2023-02-20T23:07:23.993Z,12.30
2023-02-20T23:10:09.532Z,9.50
2023-02-20T23:12:55.008Z,10.40
2023-02-20T23:15:40.276Z,12.70
2023-02-20T23:18:25.362Z,11.50
2023-02-20T23:21:10.529Z,8.60
2023-02-20T23:23:55.835Z,17.10
2023-02-20T23:26:40.896Z,12.00
2023-02-20T23:29:26.039Z,10.10
2023-02-20T23:32:11.576Z,12.00
2023-02-20T23:34:57.267Z,14.20
2023-02-20T23:37:42.717Z,11.20
2023-02-20T23:40:36.579Z,6.70
2023-02-20T23:43:27.059Z,11.80
2023-02-20T23:46:13.200Z,11.30
2023-02-20T23:48:58.659Z,6.80
2023-02-20T23:51:43.684Z,10.00
2023-02-20T23:54:28.814Z,14.20
2023-02-20T23:57:13.881Z,11.50
2023-02-20T23:59:58.822Z,11.50
